Llano, Texas
Current Conditions -  °F | °C
As of 10:15 AM on Saturday 25 Oct 2014 (Local Time) from KDZB Reporting Station
Clear Clear  
Wind Chill: 76°   Ceiling: Unl
Heat Index: 76°   Visibility: 10mi
Dew Point: 58°   Wind: 3mph
Humidity: 53%   Direction: 300°WNW
Pressure: 30.2"   Gusts: NA
Location:  30.76°N, 98.68°W
Report Text: KDZB 251515Z AUTO 30003KT 10SM CLR 24/14 A3020 RMK AO2 T02430143
Loading
Personal Weather Stations






























Interactive Weather Map
Tropical Storm Tracking
New forecast layout! Learn more

10-Day Weather Forecast

Advertisements
Track Severe Weather on mobile